sensor_id;sensor_type;location;lat;lon;timestamp;pressure;altitude;pressure_sealevel;temperature;humidity
25420;BME280;13354;48.174;11.566;2023-07-30T00:01:21;95377.06;;;19.51;78.87
25420;BME280;13354;48.174;11.566;2023-07-30T00:03:46;95385.53;;;19.43;80.59
25420;BME280;13354;48.174;11.566;2023-07-30T00:06:12;95388.50;;;19.42;79.87
25420;BME280;13354;48.174;11.566;2023-07-30T00:08:37;95390.66;;;19.18;81.33
25420;BME280;13354;48.174;11.566;2023-07-30T00:11:02;95380.25;;;19.21;81.44
25420;BME280;13354;48.174;11.566;2023-07-30T00:13:28;95398.28;;;19.26;81.43
25420;BME280;13354;48.174;11.566;2023-07-30T00:15:53;95394.31;;;19.06;82.67
25420;BME280;13354;48.174;11.566;2023-07-30T00:18:18;95387.63;;;19.09;82.85
25420;BME280;13354;48.174;11.566;2023-07-30T00:20:43;95383.53;;;19.01;84.02
25420;BME280;13354;48.174;11.566;2023-07-30T00:23:09;95386.44;;;19.00;84.60
25420;BME280;13354;48.174;11.566;2023-07-30T00:25:34;95380.28;;;18.99;84.11
25420;BME280;13354;48.174;11.566;2023-07-30T00:27:59;95379.84;;;19.08;84.16
25420;BME280;13354;48.174;11.566;2023-07-30T00:30:25;95380.97;;;19.12;83.98
25420;BME280;13354;48.174;11.566;2023-07-30T00:32:50;95386.44;;;19.00;84.22
25420;BME280;13354;48.174;11.566;2023-07-30T00:35:15;95392.69;;;19.05;84.27
25420;BME280;13354;48.174;11.566;2023-07-30T00:37:41;95385.91;;;18.98;84.85
25420;BME280;13354;48.174;11.566;2023-07-30T00:40:06;95393.34;;;18.91;85.43
25420;BME280;13354;48.174;11.566;2023-07-30T00:42:32;95393.91;;;18.93;86.03
25420;BME280;13354;48.174;11.566;2023-07-30T00:44:57;95391.00;;;18.99;85.04
25420;BME280;13354;48.174;11.566;2023-07-30T00:47:22;95392.84;;;18.94;85.70
25420;BME280;13354;48.174;11.566;2023-07-30T00:49:49;95409.44;;;18.91;85.67
25420;BME280;13354;48.174;11.566;2023-07-30T00:52:18;95409.47;;;18.96;85.26
25420;BME280;13354;48.174;11.566;2023-07-30T00:54:45;95410.81;;;18.93;85.64
25420;BME280;13354;48.174;11.566;2023-07-30T00:57:11;95412.47;;;18.99;85.09
25420;BME280;13354;48.174;11.566;2023-07-30T00:59:37;95408.75;;;19.00;85.24
25420;BME280;13354;48.174;11.566;2023-07-30T01:02:03;95415.09;;;18.94;84.95
25420;BME280;13354;48.174;11.566;2023-07-30T01:04:29;95398.69;;;19.13;84.48
25420;BME280;13354;48.174;11.566;2023-07-30T01:06:55;95399.13;;;19.04;84.66
25420;BME280;13354;48.174;11.566;2023-07-30T01:09:20;95397.13;;;18.95;85.56
25420;BME280;13354;48.174;11.566;2023-07-30T01:11:46;95391.72;;;18.90;85.15
25420;BME280;13354;48.174;11.566;2023-07-30T01:14:12;95385.66;;;18.99;84.83
25420;BME280;13354;48.174;11.566;2023-07-30T01:16:39;95384.97;;;18.87;85.49
25420;BME280;13354;48.174;11.566;2023-07-30T01:19:06;95389.28;;;18.88;86.30
25420;BME280;13354;48.174;11.566;2023-07-30T01:21:35;95395.59;;;18.77;86.71
25420;BME280;13354;48.174;11.566;2023-07-30T01:24:00;95392.66;;;18.78;86.45
25420;BME280;13354;48.174;11.566;2023-07-30T01:26:45;95387.41;;;18.89;86.52
25420;BME280;13354;48.174;11.566;2023-07-30T01:29:22;95391.59;;;18.79;86.31
25420;BME280;13354;48.174;11.566;2023-07-30T01:31:56;95399.34;;;18.76;86.44
25420;BME280;13354;48.174;11.566;2023-07-30T01:34:23;95399.44;;;18.64;87.22
25420;BME280;13354;48.174;11.566;2023-07-30T01:36:50;95400.41;;;18.58;87.75
25420;BME280;13354;48.174;11.566;2023-07-30T01:39:17;95404.34;;;18.89;86.37
25420;BME280;13354;48.174;11.566;2023-07-30T01:41:42;95400.28;;;18.70;86.74
25420;BME280;13354;48.174;11.566;2023-07-30T01:44:08;95399.47;;;18.69;86.79
25420;BME280;13354;48.174;11.566;2023-07-30T01:46:33;95395.94;;;18.64;86.73
25420;BME280;13354;48.174;11.566;2023-07-30T01:48:58;95395.53;;;18.72;86.59
25420;BME280;13354;48.174;11.566;2023-07-30T01:51:23;95397.59;;;18.70;87.38
25420;BME280;13354;48.174;11.566;2023-07-30T01:53:49;95392.50;;;18.68;86.88
25420;BME280;13354;48.174;11.566;2023-07-30T01:56:14;95393.06;;;18.70;87.02
25420;BME280;13354;48.174;11.566;2023-07-30T01:58:39;95397.72;;;18.75;86.96
25420;BME280;13354;48.174;11.566;2023-07-30T02:01:05;95406.25;;;18.72;87.63
25420;BME280;13354;48.174;11.566;2023-07-30T02:03:30;95400.13;;;18.76;86.58
25420;BME280;13354;48.174;11.566;2023-07-30T02:05:55;95394.28;;;18.79;86.94
25420;BME280;13354;48.174;11.566;2023-07-30T02:08:21;95394.03;;;18.81;86.70
25420;BME280;13354;48.174;11.566;2023-07-30T02:10:55;95397.78;;;18.80;86.80
25420;BME280;13354;48.174;11.566;2023-07-30T02:13:20;95388.97;;;18.85;86.65
25420;BME280;13354;48.174;11.566;2023-07-30T02:15:45;95398.25;;;18.77;87.05
25420;BME280;13354;48.174;11.566;2023-07-30T02:18:11;95402.31;;;18.79;87.25
25420;BME280;13354;48.174;11.566;2023-07-30T02:20:36;95392.03;;;18.93;86.75
25420;BME280;13354;48.174;11.566;2023-07-30T02:23:01;95401.88;;;18.88;86.38
25420;BME280;13354;48.174;11.566;2023-07-30T02:25:27;95399.81;;;18.95;85.67
25420;BME280;13354;48.174;11.566;2023-07-30T02:27:52;95403.75;;;18.87;87.68
25420;BME280;13354;48.174;11.566;2023-07-30T02:30:17;95398.56;;;18.80;89.44
25420;BME280;13354;48.174;11.566;2023-07-30T02:32:43;95400.09;;;18.71;89.17
25420;BME280;13354;48.174;11.566;2023-07-30T02:35:08;95387.94;;;18.86;88.51
25420;BME280;13354;48.174;11.566;2023-07-30T02:37:33;95389.38;;;18.71;88.28
25420;BME280;13354;48.174;11.566;2023-07-30T02:39:59;95396.06;;;18.74;89.18
25420;BME280;13354;48.174;11.566;2023-07-30T02:42:24;95396.19;;;18.62;89.42
25420;BME280;13354;48.174;11.566;2023-07-30T02:44:50;95403.41;;;18.78;90.30
25420;BME280;13354;48.174;11.566;2023-07-30T02:47:15;95393.13;;;18.53;93.59
25420;BME280;13354;48.174;11.566;2023-07-30T02:49:40;95397.97;;;18.34;96.80
25420;BME280;13354;48.174;11.566;2023-07-30T02:52:06;95402.91;;;18.43;96.28
25420;BME280;13354;48.174;11.566;2023-07-30T02:54:31;95406.34;;;18.21;99.21
25420;BME280;13354;48.174;11.566;2023-07-30T02:56:56;95413.91;;;18.07;100.00
25420;BME280;13354;48.174;11.566;2023-07-30T02:59:22;95416.19;;;18.16;100.00
25420;BME280;13354;48.174;11.566;2023-07-30T03:01:47;95428.06;;;18.20;100.00
25420;BME280;13354;48.174;11.566;2023-07-30T03:04:12;95432.34;;;18.21;100.00
25420;BME280;13354;48.174;11.566;2023-07-30T03:06:38;95432.59;;;18.19;100.00
25420;BME280;13354;48.174;11.566;2023-07-30T03:09:03;95430.16;;;18.18;100.00
25420;BME280;13354;48.174;11.566;2023-07-30T03:11:28;95432.50;;;18.31;100.00
25420;BME280;13354;48.174;11.566;2023-07-30T03:13:54;95431.13;;;18.28;100.00
25420;BME280;13354;48.174;11.566;2023-07-30T03:16:19;95435.66;;;18.28;100.00
25420;BME280;13354;48.174;11.566;2023-07-30T03:18:44;95435.19;;;18.31;100.00
25420;BME280;13354;48.174;11.566;2023-07-30T03:21:09;95429.88;;;18.36;100.00
25420;BME280;13354;48.174;11.566;2023-07-30T03:23:35;95424.13;;;18.27;100.00
25420;BME280;13354;48.174;11.566;2023-07-30T03:26:00;95423.66;;;18.30;100.00
25420;BME280;13354;48.174;11.566;2023-07-30T03:28:25;95422.25;;;18.28;100.00
25420;BME280;13354;48.174;11.566;2023-07-30T03:30:51;95428.91;;;18.42;100.00
25420;BME280;13354;48.174;11.566;2023-07-30T03:33:16;95430.25;;;18.23;100.00
25420;BME280;13354;48.174;11.566;2023-07-30T03:35:41;95428.84;;;18.20;100.00
25420;BME280;13354;48.174;11.566;2023-07-30T03:38:07;95428.75;;;18.15;100.00
25420;BME280;13354;48.174;11.566;2023-07-30T03:40:32;95429.59;;;18.16;100.00
25420;BME280;13354;48.174;11.566;2023-07-30T03:42:58;95431.16;;;18.12;100.00
25420;BME280;13354;48.174;11.566;2023-07-30T03:45:23;95432.94;;;18.06;100.00
25420;BME280;13354;48.174;11.566;2023-07-30T03:47:48;95437.81;;;18.09;100.00
25420;BME280;13354;48.174;11.566;2023-07-30T03:50:14;95433.19;;;18.04;100.00
25420;BME280;13354;48.174;11.566;2023-07-30T03:52:39;95430.88;;;17.96;100.00
25420;BME280;13354;48.174;11.566;2023-07-30T03:55:04;95428.16;;;17.91;100.00
25420;BME280;13354;48.174;11.566;2023-07-30T03:57:30;95432.91;;;17.89;100.00
25420;BME280;13354;48.174;11.566;2023-07-30T03:59:55;95437.25;;;17.90;100.00
25420;BME280;13354;48.174;11.566;2023-07-30T04:02:20;95436.25;;;17.79;100.00
25420;BME280;13354;48.174;11.566;2023-07-30T04:04:46;95438.94;;;17.96;100.00
25420;BME280;13354;48.174;11.566;2023-07-30T04:07:13;95441.78;;;17.90;100.00
25420;BME280;13354;48.174;11.566;2023-07-30T04:09:38;95439.91;;;17.90;100.00
25420;BME280;13354;48.174;11.566;2023-07-30T04:12:04;95442.59;;;17.90;100.00
25420;BME280;13354;48.174;11.566;2023-07-30T04:14:29;95441.69;;;17.84;100.00
25420;BME280;13354;48.174;11.566;2023-07-30T04:16:55;95438.94;;;17.96;100.00
25420;BME280;13354;48.174;11.566;2023-07-30T04:19:20;95440.25;;;17.94;100.00
25420;BME280;13354;48.174;11.566;2023-07-30T04:21:46;95442.75;;;17.83;100.00
25420;BME280;13354;48.174;11.566;2023-07-30T04:24:11;95434.25;;;17.86;100.00
25420;BME280;13354;48.174;11.566;2023-07-30T04:26:36;95439.91;;;17.90;100.00
25420;BME280;13354;48.174;11.566;2023-07-30T04:29:02;95446.63;;;17.93;100.00
25420;BME280;13354;48.174;11.566;2023-07-30T04:31:27;95443.47;;;17.96;100.00
25420;BME280;13354;48.174;11.566;2023-07-30T04:33:52;95448.66;;;17.85;100.00
25420;BME280;13354;48.174;11.566;2023-07-30T04:36:17;95452.00;;;17.93;100.00
25420;BME280;13354;48.174;11.566;2023-07-30T04:38:43;95463.28;;;17.95;100.00
25420;BME280;13354;48.174;11.566;2023-07-30T04:41:08;95467.50;;;18.24;100.00
25420;BME280;13354;48.174;11.566;2023-07-30T04:43:33;95470.34;;;18.18;100.00
25420;BME280;13354;48.174;11.566;2023-07-30T04:45:59;95465.94;;;18.28;100.00
25420;BME280;13354;48.174;11.566;2023-07-30T04:48:24;95467.50;;;18.24;100.00
25420;BME280;13354;48.174;11.566;2023-07-30T04:50:49;95468.69;;;18.33;99.71
25420;BME280;13354;48.174;11.566;2023-07-30T04:53:14;95473.25;;;18.33;99.49
25420;BME280;13354;48.174;11.566;2023-07-30T04:55:42;95469.91;;;18.43;98.49
25420;BME280;13354;48.174;11.566;2023-07-30T04:58:07;95474.38;;;18.37;98.27
25420;BME280;13354;48.174;11.566;2023-07-30T05:00:32;95477.63;;;18.39;98.04
25420;BME280;13354;48.174;11.566;2023-07-30T05:02:58;95484.78;;;18.33;98.04
25420;BME280;13354;48.174;11.566;2023-07-30T05:05:23;95486.75;;;18.38;97.30
25420;BME280;13354;48.174;11.566;2023-07-30T05:07:48;95483.91;;;18.45;96.07
25420;BME280;13354;48.174;11.566;2023-07-30T05:10:14;95493.06;;;18.49;95.44
25420;BME280;13354;48.174;11.566;2023-07-30T05:12:41;95489.06;;;18.51;95.70
25420;BME280;13354;48.174;11.566;2023-07-30T05:15:06;95493.47;;;18.41;95.70
25420;BME280;13354;48.174;11.566;2023-07-30T05:17:32;95492.97;;;18.44;95.75
25420;BME280;13354;48.174;11.566;2023-07-30T05:19:57;95482.16;;;18.55;94.96
25420;BME280;13354;48.174;11.566;2023-07-30T05:22:22;95482.53;;;18.81;93.15
25420;BME280;13354;48.174;11.566;2023-07-30T05:24:49;95493.03;;;18.82;92.36
25420;BME280;13354;48.174;11.566;2023-07-30T05:27:14;95491.47;;;18.87;91.38
25420;BME280;13354;48.174;11.566;2023-07-30T05:29:39;95496.81;;;18.70;91.85
25420;BME280;13354;48.174;11.566;2023-07-30T05:32:05;95500.06;;;18.89;90.93
25420;BME280;13354;48.174;11.566;2023-07-30T05:34:31;95501.09;;;19.04;90.31
25420;BME280;13354;48.174;11.566;2023-07-30T05:36:56;95502.69;;;18.83;90.45
25420;BME280;13354;48.174;11.566;2023-07-30T05:39:21;95508.78;;;18.79;91.51
25420;BME280;13354;48.174;11.566;2023-07-30T05:41:46;95512.84;;;19.03;90.00
25420;BME280;13354;48.174;11.566;2023-07-30T05:44:12;95510.09;;;18.76;91.53
25420;BME280;13354;48.174;11.566;2023-07-30T05:46:37;95511.56;;;19.06;89.98
25420;BME280;13354;48.174;11.566;2023-07-30T05:49:02;95504.00;;;19.03;90.72
25420;BME280;13354;48.174;11.566;2023-07-30T05:51:28;95504.75;;;18.98;90.55
25420;BME280;13354;48.174;11.566;2023-07-30T05:53:53;95506.00;;;19.35;88.21
25420;BME280;13354;48.174;11.566;2023-07-30T05:56:18;95505.03;;;19.19;88.04
25420;BME280;13354;48.174;11.566;2023-07-30T05:58:45;95509.75;;;19.12;88.19
25420;BME280;13354;48.174;11.566;2023-07-30T06:01:10;95512.94;;;19.09;87.70
25420;BME280;13354;48.174;11.566;2023-07-30T06:03:36;95508.69;;;19.13;88.14
25420;BME280;13354;48.174;11.566;2023-07-30T06:06:02;95510.75;;;19.27;87.99
25420;BME280;13354;48.174;11.566;2023-07-30T06:08:27;95508.81;;;19.23;86.78
25420;BME280;13354;48.174;11.566;2023-07-30T06:10:54;95509.38;;;19.25;87.41
25420;BME280;13354;48.174;11.566;2023-07-30T06:13:19;95509.84;;;19.44;85.51
25420;BME280;13354;48.174;11.566;2023-07-30T06:15:46;95510.91;;;19.65;85.04
25420;BME280;13354;48.174;11.566;2023-07-30T06:18:11;95516.94;;;19.55;83.98
25420;BME280;13354;48.174;11.566;2023-07-30T06:20:36;95511.72;;;19.65;84.29
25420;BME280;13354;48.174;11.566;2023-07-30T06:23:02;95515.75;;;19.63;84.67
25420;BME280;13354;48.174;11.566;2023-07-30T06:25:28;95500.28;;;19.75;84.74
25420;BME280;13354;48.174;11.566;2023-07-30T06:27:54;95500.81;;;19.77;83.09
25420;BME280;13354;48.174;11.566;2023-07-30T06:30:21;95499.63;;;19.90;82.43
25420;BME280;13354;48.174;11.566;2023-07-30T06:32:46;95506.06;;;19.89;83.59
25420;BME280;13354;48.174;11.566;2023-07-30T06:35:12;95514.16;;;19.94;82.42
25420;BME280;13354;48.174;11.566;2023-07-30T06:37:37;95515.16;;;19.88;80.91
25420;BME280;13354;48.174;11.566;2023-07-30T06:40:02;95511.88;;;20.08;81.41
25420;BME280;13354;48.174;11.566;2023-07-30T06:42:31;95507.53;;;20.07;81.21
25420;BME280;13354;48.174;11.566;2023-07-30T06:44:56;95514.38;;;20.19;79.93
25420;BME280;13354;48.174;11.566;2023-07-30T06:47:21;95520.16;;;20.33;78.77
25420;BME280;13354;48.174;11.566;2023-07-30T06:49:47;95518.69;;;20.20;78.93
25420;BME280;13354;48.174;11.566;2023-07-30T06:52:12;95524.72;;;20.33;78.47
25420;BME280;13354;48.174;11.566;2023-07-30T06:54:37;95522.75;;;20.23;78.45
25420;BME280;13354;48.174;11.566;2023-07-30T06:57:03;95511.19;;;20.55;77.48
25420;BME280;13354;48.174;11.566;2023-07-30T06:59:28;95510.00;;;20.78;75.21
25420;BME280;13354;48.174;11.566;2023-07-30T07:01:53;95512.56;;;21.10;74.85
25420;BME280;13354;48.174;11.566;2023-07-30T07:04:19;95522.78;;;21.65;72.69
25420;BME280;13354;48.174;11.566;2023-07-30T07:06:44;95514.28;;;22.25;69.91
25420;BME280;13354;48.174;11.566;2023-07-30T07:09:09;95515.63;;;22.32;67.17
25420;BME280;13354;48.174;11.566;2023-07-30T07:11:35;95521.75;;;22.79;66.75
25420;BME280;13354;48.174;11.566;2023-07-30T07:14:00;95510.16;;;22.99;65.26
25420;BME280;13354;48.174;11.566;2023-07-30T07:16:25;95516.13;;;23.60;64.64
25420;BME280;13354;48.174;11.566;2023-07-30T07:18:51;95511.75;;;23.75;62.26
25420;BME280;13354;48.174;11.566;2023-07-30T07:21:16;95519.50;;;23.92;62.47
25420;BME280;13354;48.174;11.566;2023-07-30T07:23:41;95523.25;;;23.96;61.35
25420;BME280;13354;48.174;11.566;2023-07-30T07:26:07;95526.75;;;24.70;60.01
25420;BME280;13354;48.174;11.566;2023-07-30T07:28:32;95526.00;;;24.64;59.83
25420;BME280;13354;48.174;11.566;2023-07-30T07:30:58;95524.91;;;24.94;58.76
25420;BME280;13354;48.174;11.566;2023-07-30T07:33:23;95527.19;;;24.82;58.65
25420;BME280;13354;48.174;11.566;2023-07-30T07:35:48;95531.44;;;24.59;58.59
25420;BME280;13354;48.174;11.566;2023-07-30T07:38:14;95527.13;;;24.19;60.05
25420;BME280;13354;48.174;11.566;2023-07-30T07:40:40;95518.06;;;24.39;59.29
25420;BME280;13354;48.174;11.566;2023-07-30T07:43:06;95526.13;;;24.09;59.84
25420;BME280;13354;48.174;11.566;2023-07-30T07:45:32;95537.56;;;24.35;59.44
25420;BME280;13354;48.174;11.566;2023-07-30T07:47:57;95528.94;;;23.94;60.01
25420;BME280;13354;48.174;11.566;2023-07-30T07:50:23;95534.00;;;24.06;60.57
25420;BME280;13354;48.174;11.566;2023-07-30T07:52:48;95524.69;;;24.22;59.50
25420;BME280;13354;48.174;11.566;2023-07-30T07:55:13;95537.44;;;24.17;59.32
25420;BME280;13354;48.174;11.566;2023-07-30T07:57:39;95538.19;;;23.83;59.71
25420;BME280;13354;48.174;11.566;2023-07-30T08:00:05;95528.66;;;23.96;59.16
25420;BME280;13354;48.174;11.566;2023-07-30T08:02:30;95529.66;;;23.60;59.60
25420;BME280;13354;48.174;11.566;2023-07-30T08:04:56;95533.38;;;23.00;60.23
25420;BME280;13354;48.174;11.566;2023-07-30T08:07:21;95539.56;;;23.00;60.79
25420;BME280;13354;48.174;11.566;2023-07-30T08:09:46;95533.63;;;22.88;61.32
25420;BME280;13354;48.174;11.566;2023-07-30T08:12:12;95526.63;;;22.87;62.10
25420;BME280;13354;48.174;11.566;2023-07-30T08:14:38;95538.38;;;23.42;60.88
25420;BME280;13354;48.174;11.566;2023-07-30T08:17:03;95528.38;;;23.37;60.63
25420;BME280;13354;48.174;11.566;2023-07-30T08:19:29;95535.38;;;23.44;59.90
25420;BME280;13354;48.174;11.566;2023-07-30T08:21:55;95531.09;;;23.32;58.79
25420;BME280;13354;48.174;11.566;2023-07-30T08:24:22;95541.22;;;23.76;57.50
25420;BME280;13354;48.174;11.566;2023-07-30T08:26:47;95534.34;;;23.94;57.69
25420;BME280;13354;48.174;11.566;2023-07-30T08:29:12;95534.97;;;23.81;57.58
25420;BME280;13354;48.174;11.566;2023-07-30T08:31:39;95528.81;;;23.60;58.31
25420;BME280;13354;48.174;11.566;2023-07-30T08:34:04;95530.25;;;23.47;58.90
25420;BME280;13354;48.174;11.566;2023-07-30T08:36:29;95527.63;;;23.22;59.75
25420;BME280;13354;48.174;11.566;2023-07-30T08:38:55;95525.69;;;23.37;59.29
25420;BME280;13354;48.174;11.566;2023-07-30T08:41:20;95526.69;;;23.57;58.86
25420;BME280;13354;48.174;11.566;2023-07-30T08:43:45;95518.00;;;23.70;57.58
25420;BME280;13354;48.174;11.566;2023-07-30T08:46:14;95518.41;;;23.93;55.99
25420;BME280;13354;48.174;11.566;2023-07-30T08:48:40;95516.41;;;24.08;55.11
25420;BME280;13354;48.174;11.566;2023-07-30T08:51:05;95510.88;;;23.84;55.10
25420;BME280;13354;48.174;11.566;2023-07-30T08:53:30;95516.00;;;23.31;55.89
25420;BME280;13354;48.174;11.566;2023-07-30T08:55:57;95521.69;;;23.20;56.70
25420;BME280;13354;48.174;11.566;2023-07-30T08:58:25;95537.53;;;23.42;57.49
25420;BME280;13354;48.174;11.566;2023-07-30T09:00:53;95514.06;;;23.37;58.47
25420;BME280;13354;48.174;11.566;2023-07-30T09:03:20;95512.06;;;23.68;56.58
25420;BME280;13354;48.174;11.566;2023-07-30T09:05:47;95511.13;;;23.88;55.59
25420;BME280;13354;48.174;11.566;2023-07-30T09:08:14;95499.75;;;24.30;54.07
25420;BME280;13354;48.174;11.566;2023-07-30T09:10:39;95493.00;;;24.62;53.69
25420;BME280;13354;48.174;11.566;2023-07-30T09:13:05;95483.47;;;24.94;52.63
25420;BME280;13354;48.174;11.566;2023-07-30T09:15:32;95493.34;;;25.09;52.62
25420;BME280;13354;48.174;11.566;2023-07-30T09:17:58;95505.69;;;25.20;52.56
25420;BME280;13354;48.174;11.566;2023-07-30T09:20:24;95488.91;;;24.94;51.16
25420;BME280;13354;48.174;11.566;2023-07-30T09:22:49;95492.66;;;25.22;50.35
25420;BME280;13354;48.174;11.566;2023-07-30T09:25:18;95478.88;;;25.42;50.06
25420;BME280;13354;48.174;11.566;2023-07-30T09:27:50;95481.03;;;25.83;50.52
25420;BME280;13354;48.174;11.566;2023-07-30T09:30:22;95492.66;;;25.65;50.09
25420;BME280;13354;48.174;11.566;2023-07-30T09:32:51;95501.16;;;25.77;49.21
25420;BME280;13354;48.174;11.566;2023-07-30T09:35:17;95472.00;;;26.07;48.77
25420;BME280;13354;48.174;11.566;2023-07-30T09:37:43;95478.22;;;25.69;48.43
25420;BME280;13354;48.174;11.566;2023-07-30T09:40:10;95493.69;;;25.69;49.27
25420;BME280;13354;48.174;11.566;2023-07-30T09:42:37;95487.94;;;25.51;49.21
25420;BME280;13354;48.174;11.566;2023-07-30T09:45:08;95489.28;;;25.73;48.08
25420;BME280;13354;48.174;11.566;2023-07-30T09:47:46;95487.16;;;25.70;47.27
25420;BME280;13354;48.174;11.566;2023-07-30T09:50:11;95473.78;;;25.97;47.57
25420;BME280;13354;48.174;11.566;2023-07-30T09:52:37;95481.03;;;26.02;47.75
25420;BME280;13354;48.174;11.566;2023-07-30T09:55:07;95474.66;;;25.74;47.06
25420;BME280;13354;48.174;11.566;2023-07-30T09:57:32;95468.56;;;25.44;47.22
25420;BME280;13354;48.174;11.566;2023-07-30T09:59:58;95470.53;;;25.15;47.38
25420;BME280;13354;48.174;11.566;2023-07-30T10:02:24;95481.00;;;24.97;47.92
25420;BME280;13354;48.174;11.566;2023-07-30T10:04:50;95482.84;;;25.02;47.46
25420;BME280;13354;48.174;11.566;2023-07-30T10:07:20;95480.06;;;24.83;49.14
25420;BME280;13354;48.174;11.566;2023-07-30T10:09:48;95486.88;;;25.04;49.80
25420;BME280;13354;48.174;11.566;2023-07-30T10:12:17;95488.50;;;25.05;50.07
25420;BME280;13354;48.174;11.566;2023-07-30T10:14:43;95484.91;;;24.86;49.80
25420;BME280;13354;48.174;11.566;2023-07-30T10:17:11;95488.94;;;24.59;50.65
25420;BME280;13354;48.174;11.566;2023-07-30T10:19:36;95485.69;;;24.28;51.69
25420;BME280;13354;48.174;11.566;2023-07-30T10:24:37;95499.25;;;23.84;53.25
25420;BME280;13354;48.174;11.566;2023-07-30T10:27:06;95496.69;;;23.58;53.73
25420;BME280;13354;48.174;11.566;2023-07-30T10:29:34;95494.91;;;23.33;54.52
25420;BME280;13354;48.174;11.566;2023-07-30T10:32:01;95500.09;;;23.79;54.55
25420;BME280;13354;48.174;11.566;2023-07-30T10:34:44;95490.97;;;24.09;53.81
25420;BME280;13354;48.174;11.566;2023-07-30T10:37:10;95492.56;;;24.50;52.50
25420;BME280;13354;48.174;11.566;2023-07-30T10:39:35;95488.09;;;24.30;52.98
25420;BME280;13354;48.174;11.566;2023-07-30T10:42:01;95490.94;;;24.78;52.47
25420;BME280;13354;48.174;11.566;2023-07-30T10:44:33;95491.16;;;25.11;50.96
25420;BME280;13354;48.174;11.566;2023-07-30T10:47:00;95494.84;;;25.20;50.73
25420;BME280;13354;48.174;11.566;2023-07-30T10:49:26;95484.41;;;25.08;50.08
25420;BME280;13354;48.174;11.566;2023-07-30T10:51:53;95479.09;;;25.22;49.48
25420;BME280;13354;48.174;11.566;2023-07-30T10:54:19;95473.84;;;25.12;50.32
25420;BME280;13354;48.174;11.566;2023-07-30T10:56:44;95480.28;;;25.16;50.14
25420;BME280;13354;48.174;11.566;2023-07-30T10:59:10;95482.50;;;25.09;49.71
25420;BME280;13354;48.174;11.566;2023-07-30T11:01:40;95476.78;;;24.86;51.19
25420;BME280;13354;48.174;11.566;2023-07-30T11:04:08;95480.44;;;25.00;51.37
25420;BME280;13354;48.174;11.566;2023-07-30T11:06:34;95475.44;;;25.13;51.23
25420;BME280;13354;48.174;11.566;2023-07-30T11:08:59;95471.88;;;25.36;50.43
25420;BME280;13354;48.174;11.566;2023-07-30T11:11:25;95472.78;;;25.69;49.40
25420;BME280;13354;48.174;11.566;2023-07-30T11:13:51;95469.53;;;25.91;48.23
25420;BME280;13354;48.174;11.566;2023-07-30T11:16:16;95475.16;;;25.95;46.55
25420;BME280;13354;48.174;11.566;2023-07-30T11:18:43;95477.16;;;25.89;45.95
25420;BME280;13354;48.174;11.566;2023-07-30T11:21:10;95480.66;;;25.71;46.04
25420;BME280;13354;48.174;11.566;2023-07-30T11:23:37;95474.34;;;25.57;46.31
25420;BME280;13354;48.174;11.566;2023-07-30T11:26:05;95488.38;;;25.40;46.59
25420;BME280;13354;48.174;11.566;2023-07-30T11:28:32;95483.41;;;24.99;47.42
25420;BME280;13354;48.174;11.566;2023-07-30T11:31:09;95483.31;;;25.09;47.25
25420;BME280;13354;48.174;11.566;2023-07-30T11:33:36;95476.34;;;25.27;47.36
25420;BME280;13354;48.174;11.566;2023-07-30T11:36:02;95478.50;;;25.49;47.56
25420;BME280;13354;48.174;11.566;2023-07-30T11:38:29;95462.03;;;25.64;48.45
25420;BME280;13354;48.174;11.566;2023-07-30T11:40:55;95481.03;;;25.40;47.13
25420;BME280;13354;48.174;11.566;2023-07-30T11:43:22;95476.69;;;25.20;49.65
25420;BME280;13354;48.174;11.566;2023-07-30T11:45:48;95506.91;;;25.03;51.52
25420;BME280;13354;48.174;11.566;2023-07-30T11:48:13;95528.97;;;24.63;53.16
25420;BME280;13354;48.174;11.566;2023-07-30T11:50:50;95534.63;;;24.32;53.15
25420;BME280;13354;48.174;11.566;2023-07-30T11:53:17;95520.09;;;23.83;53.21
25420;BME280;13354;48.174;11.566;2023-07-30T11:55:43;95514.53;;;24.04;53.11
25420;BME280;13354;48.174;11.566;2023-07-30T11:58:10;95511.38;;;24.31;53.44
25420;BME280;13354;48.174;11.566;2023-07-30T12:00:37;95512.66;;;24.39;53.30
25420;BME280;13354;48.174;11.566;2023-07-30T12:03:04;95512.19;;;24.66;51.38
25420;BME280;13354;48.174;11.566;2023-07-30T12:05:37;95506.38;;;24.77;51.11
25420;BME280;13354;48.174;11.566;2023-07-30T12:08:03;95515.28;;;25.07;50.58
25420;BME280;13354;48.174;11.566;2023-07-30T12:10:42;95527.94;;;25.41;50.26
25420;BME280;13354;48.174;11.566;2023-07-30T12:13:15;95530.34;;;25.42;49.26
25420;BME280;13354;48.174;11.566;2023-07-30T12:15:59;95524.22;;;25.80;49.30
25420;BME280;13354;48.174;11.566;2023-07-30T12:18:26;95520.19;;;25.96;48.42
25420;BME280;13354;48.174;11.566;2023-07-30T12:20:53;95525.41;;;26.11;48.25
25420;BME280;13354;48.174;11.566;2023-07-30T12:23:21;95527.72;;;26.18;48.62
25420;BME280;13354;48.174;11.566;2023-07-30T12:25:47;95526.69;;;26.33;48.93
25420;BME280;13354;48.174;11.566;2023-07-30T12:28:13;95527.88;;;26.26;48.97
25420;BME280;13354;48.174;11.566;2023-07-30T12:30:38;95534.34;;;26.12;49.96
25420;BME280;13354;48.174;11.566;2023-07-30T12:33:04;95543.41;;;26.02;50.12
25420;BME280;13354;48.174;11.566;2023-07-30T12:35:30;95536.25;;;25.68;50.96
25420;BME280;13354;48.174;11.566;2023-07-30T12:37:55;95538.88;;;25.54;51.65
25420;BME280;13354;48.174;11.566;2023-07-30T12:40:20;95546.31;;;25.68;52.02
25420;BME280;13354;48.174;11.566;2023-07-30T12:42:46;95537.06;;;25.93;51.88
25420;BME280;13354;48.174;11.566;2023-07-30T12:45:11;95537.19;;;26.20;52.25